KSVC  Grant County Airport

Add Bookmark

Silver City, New Mexico, United States

Status Useage IATA
Operational Public SVC
Latitude Longitude
32° 38' 11" N 108° 9' 22" W
32.636547 -108.156385
Local (DST -6) UTC (GMT -7)
Nov 21, 2014 01:10 Nov 21, 2014 20:10
Sunrise-Sunset Local UTC
Begin Civil Twilight 06:21 13:21
Sunrise 06:47 13:47
Sunset 05:10 00:10
End Civil Twilight 05:36 00:36

Current Weather

METAR Observed VFR
KSVC 211955Z AUTO 23008KT 10SM CLR 13/M07 A3001 Fri, Nov 21, 2014 @ 19:55 UTC
(15 Minutes ago)
Visual Flight Rules
Wind Visibility Clouds Conditions
230° at 8 knots (9 mph) 10 statute miles
  • Clear skies
  • No significant weather
Temperatures Readings Precipitation
Current Temp 13°C (55°F)
Dewpoint -7°C (19°F)
Humidity 24%
Altimeter 30.01"Hg
Sea Level Pressure 1016mb
Field Elevation 5443.01'
None Recorded

Additional weather within a 50nm radius of KSVC

Map ICAO Location
KDMN 31.5nm S (135°)
KLSB 32.6nm S (236°)

24 Hour Weather History

Loading
-

24 Hour Weather Graphs

Loading
-

CheckWX.com is intended as a tool to help pilots better visualize weather data. It is not intended as a substitute for an official weather briefing obtained from a Flight Service Station. CheckWX.com does not meet the FAA requirements for an official pre-flight weather briefing. Therefore, it's important that pilots still call and obtain an official FSS pre-flight weather briefing.